Bocholt, Germany

3:44 PM CEST on October 20, 2014 (GMT +0200)
INRWSCHE2 | Change Station
CLOSE
Current Station
Personal Weather Station
Location: Hamminkeln / Dingden, Nordrhein-Westfalen
Elevation: 157 ft
Nearby Weather Stations

Elev 157 ft 51.79 °N, 6.63 °E | Updated 52 seconds ago

Mostly Cloudy
Mostly Cloudy
62.4 °F
Feels Like 62.4 °F
N
1.9
Wind Variable Wind from South
Gusts 3.8 mph

Today
High -- | Low -- °F
--% Chance of Precip.
Yesterday
High -- | Low -- °F
Precip. -- in
8:06 AM 6:29 PM
Waning Crescent, 11% visible
Pressure 29.95 in
Visibility 6.2 miles
Clouds Few 2100 ft
Scattered Clouds 4700 ft
Mostly Cloudy 6100 ft
Dew Point 53 °F
Humidity 72%
Rainfall 0.00 in
Snow Depth Not available.
UV 1 out of 12
Pollen Not available.
Air Quality Not available.
Flu Activity Not available.
METAR EHDL 201325Z AUTO 24013KT 9999 FEW021 SCT047 BKN061 16/12 Q1014 BLU

More Conditions Fewer Conditions

Pressure 29.95 in
Visibility 6.2 miles
Clouds Few 2100 ft
Scattered Clouds 4700 ft
Mostly Cloudy 6100 ft
Dew Point 53 °F
Humidity 72%
Rainfall 0.00 in
Snow Depth Not available.
UV 1 out of 12
Pollen Not available.
Air Quality Not available.
Flu Activity Not available.
METAR EHDL 201325Z AUTO 24013KT 9999 FEW021 SCT047 BKN061 16/12 Q1014 BLU

More Conditions Fewer Conditions

10-Day Weather Forecast

Almanac

Astronomy

Oct. 20, 2014 Rise Set
Actual Time 8:06 AM CEST 6:29 PM CEST
Civil Twilight 7:32 AM CEST 7:04 PM CEST
Nautical Twilight 6:53 AM CEST 7:43 PM CEST
Astronomical Twilight 6:14 AM CEST 8:21 PM CEST
Moon 4:16 AM CEST 5:04 PM CEST
Length of Visible Light 11h 31m
Length of Day
10h 23m
Tomorrow will be 3m 49s shorter.
Waning Crescent, 11% of the Moon is Illuminated
Today
Waning Crescent
Oct 23
New
Oct 30
First Quarter
Nov 6
Full
Nov 14
Last Quarter

Yesterday's Extremes

Country Highs Country Lows

Community

WunderPhotos

Upload Photos

1,763,382 photos uploaded!

Nearby

Snow Depth

Not available.

Earthquake Activity

City Distance Mag. Time & Date
No recent earthquake activity has been reported nearby.
Minimum magnitude displayed is 2.5.

Coastal Water Temperatures

Place Temperature
No Stations Reporting

Nearby Weather Stations